Time;durP1;ratioP1;P1;durP2;ratioP2;P2;SDS_P1;SDS_P2;PMS_P1;PMS_P2;Temp;Humidity;BMP_temperature;BMP_pressure;BME280_temperature;BME280_humidity;BME280_pressure;Samples;Min_cycle;Max_cycle;Signal;HPM_P1;HPM_P2
2021/03/13 06:00:43;;;;;;;;;;;;;;;;;;5085299;28;20411;-60
2021/03/13 06:03:10;;;;;;;6.60;2.20;;;;;;;;;;5072709;28;19926;-60
2021/03/13 06:05:36;;;;;;;4.88;1.30;;;;;;;;;;5073014;28;20090;-60
2021/03/13 06:08:02;;;;;;;2.45;0.40;;;;;;;;;;5073473;28;20325;-61
2021/03/13 06:10:28;;;;;;;10.20;0.98;;;;;;;;;;5073286;28;20063;-61
2021/03/13 06:12:54;;;;;;;8.25;1.85;;;;;;;;;;5070319;28;20100;-60
2021/03/13 06:15:21;;;;;;;5.68;2.53;;;;;;;;;;5071156;28;20032;-61
2021/03/13 06:17:54;;;;;;;9.07;0.80;;;;;;;;;;5076303;28;20079;-60
2021/03/13 06:20:32;;;;;;;9.30;3.38;;;;;;;;;;5072810;28;20033;-61
2021/03/13 06:23:03;;;;;;;10.43;3.28;;;;;;;;;;5073025;28;20063;-61
2021/03/13 06:25:30;;;;;;;20.40;2.53;;;;;;;;;;5072804;28;20111;-60
2021/03/13 06:28:02;;;;;;;16.10;1.60;;;;;;;;;;5070185;28;20025;-60
2021/03/13 06:30:29;;;;;;;5.75;1.75;;;;;;;;;;5083123;28;20086;-61
2021/03/13 06:32:55;;;;;;;7.32;2.97;;;;;;;;;;5072408;28;20067;-61
2021/03/13 06:35:28;;;;;;;1.27;0.50;;;;;;;;;;5072186;28;20041;-60
2021/03/13 06:37:56;;;;;;;18.95;2.92;;;;;;;;;;5072547;28;20029;-61
2021/03/13 06:40:30;;;;;;;9.73;2.05;;;;;;;;;;5078805;28;20042;-60
2021/03/13 06:42:57;;;;;;;41.08;8.73;;;;;;;;;;5084205;28;20024;-61
2021/03/13 06:45:23;;;;;;;4.88;3.53;;;;;;;;;;5085093;28;20024;-60
2021/03/13 06:47:50;;;;;;;11.68;6.00;;;;;;;;;;5086087;28;20035;-61
2021/03/13 06:50:16;;;;;;;8.43;1.42;;;;;;;;;;5084295;28;20036;-60
2021/03/13 06:52:43;;;;;;;10.68;2.47;;;;;;;;;;5084658;28;20033;-60
2021/03/13 06:55:20;;;;;;;5.00;1.95;;;;;;;;;;5085429;28;20021;-61
2021/03/13 06:57:48;;;;;;;5.53;1.17;;;;;;;;;;5082914;28;20016;-60
2021/03/13 07:00:29;;;;;;;0.88;0.50;;;;;;;;;;5064795;28;20084;-60
2021/03/13 07:03:09;;;;;;;7.65;1.42;;;;;;;;;;5061868;28;20056;-60
2021/03/13 07:05:36;;;;;;;9.23;2.35;;;;;;;;;;5058684;28;20028;-60
2021/03/13 07:08:21;;;;;;;3.53;0.95;;;;;;;;;;5058967;28;20532;-60
2021/03/13 07:10:47;;;;;;;3.35;0.75;;;;;;;;;;5058428;28;20059;-60
2021/03/13 07:13:32;;;;;;;13.05;0.95;;;;;;;;;;5057248;28;20094;-60
2021/03/13 07:16:19;;;;;;;6.03;2.00;;;;;;;;;;5055476;28;20040;-61
2021/03/13 07:18:45;;;;;;;3.38;1.63;;;;;;;;;;5031488;28;20036;-60
2021/03/13 07:21:12;;;;;;;5.85;0.85;;;;;;;;;;5046512;28;20041;-57
2021/03/13 07:23:38;;;;;;;9.30;4.95;;;;;;;;;;5041548;28;20040;-60
2021/03/13 07:26:05;;;;;;;4.50;0.60;;;;;;;;;;5048552;28;20152;-60
2021/03/13 07:28:32;;;;;;;15.50;2.67;;;;;;;;;;5042592;28;20124;-60
2021/03/13 07:31:01;;;;;;;3.60;0.93;;;;;;;;;;5045117;28;20025;-60
2021/03/13 07:33:28;;;;;;;6.35;1.33;;;;;;;;;;5046819;28;20108;-60
2021/03/13 07:35:54;;;;;;;10.60;1.20;;;;;;;;;;5049835;28;20152;-59
2021/03/13 07:38:22;;;;;;;3.65;0.40;;;;;;;;;;5042722;28;20450;-60
2021/03/13 07:40:48;;;;;;;5.57;1.25;;;;;;;;;;5049175;28;20478;-60
2021/03/13 07:43:15;;;;;;;1.15;1.15;;;;;;;;;;5049762;28;20560;-60
2021/03/13 07:45:42;;;;;;;6.65;4.03;;;;;;;;;;5016713;28;20025;-60
2021/03/13 07:48:09;;;;;;;3.83;1.50;;;;;;;;;;5049765;28;20032;-59
2021/03/13 07:50:35;;;;;;;5.05;2.03;;;;;;;;;;5049533;28;20187;-59
2021/03/13 07:53:01;;;;;;;8.75;1.48;;;;;;;;;;5049089;28;20036;-59
2021/03/13 07:55:28;;;;;;;10.88;1.25;;;;;;;;;;5056117;28;20037;-59
2021/03/13 07:57:55;;;;;;;15.77;2.38;;;;;;;;;;5068385;28;20500;-59
2021/03/13 08:00:42;;;;;;;8.20;2.17;;;;;;;;;;5071318;28;20048;-59
2021/03/13 08:03:29;;;;;;;5.05;1.45;;;;;;;;;;5060096;28;20048;-60
2021/03/13 08:05:59;;;;;;;12.00;1.58;;;;;;;;;;5066194;28;20033;-60
2021/03/13 08:08:39;;;;;;;7.07;2.13;;;;;;;;;;5059291;28;20107;-60
2021/03/13 08:11:06;;;;;;;11.80;4.55;;;;;;;;;;5056654;28;20043;-61
2021/03/13 08:13:32;;;;;;;12.43;2.13;;;;;;;;;;5055146;28;20017;-60
2021/03/13 08:16:14;;;;;;;7.82;1.65;;;;;;;;;;5067542;28;20024;-60
2021/03/13 08:18:54;;;;;;;11.68;4.47;;;;;;;;;;5060114;28;20104;-60
2021/03/13 08:21:20;;;;;;;3.25;0.98;;;;;;;;;;5067556;28;20471;-60
2021/03/13 08:23:49;;;;;;;0.65;0.65;;;;;;;;;;5065008;28;20033;-60
2021/03/13 08:26:16;;;;;;;0.90;0.52;;;;;;;;;;5059870;28;20033;-59
2021/03/13 08:28:44;;;;;;;8.20;1.50;;;;;;;;;;5057192;28;20505;-60
2021/03/13 08:31:28;;;;;;;9.50;1.52;;;;;;;;;;5067527;28;20115;-60
2021/03/13 08:34:14;;;;;;;4.03;0.80;;;;;;;;;;5053670;28;20522;-60
2021/03/13 08:36:40;;;;;;;0.30;0.25;;;;;;;;;;5052028;28;20039;-60
2021/03/13 08:39:11;;;;;;;3.95;0.60;;;;;;;;;;5069474;28;20032;-60
2021/03/13 08:41:43;;;;;;;23.67;1.75;;;;;;;;;;5064830;28;20070;-59
2021/03/13 08:44:17;;;;;;;9.30;2.58;;;;;;;;;;5062135;28;20073;-60
2021/03/13 08:46:47;;;;;;;9.52;0.80;;;;;;;;;;5056809;28;20036;-59
2021/03/13 08:49:36;;;;;;;12.77;1.58;;;;;;;;;;5067103;28;20044;-60
2021/03/13 08:52:06;;;;;;;2.80;0.43;;;;;;;;;;5063829;28;20028;-60
2021/03/13 08:54:38;;;;;;;8.27;1.85;;;;;;;;;;5061301;28;20111;-60
2021/03/13 08:57:08;;;;;;;9.85;1.55;;;;;;;;;;5061912;28;20036;-59
2021/03/13 08:59:34;;;;;;;4.07;1.33;;;;;;;;;;5062993;28;20049;-60
2021/03/13 09:02:12;;;;;;;3.30;0.43;;;;;;;;;;5057143;28;20031;-60
2021/03/13 09:04:39;;;;;;;8.77;1.60;;;;;;;;;;5061017;28;20036;-60
2021/03/13 09:07:05;;;;;;;4.28;1.00;;;;;;;;;;5058323;28;20403;-60
2021/03/13 09:09:33;;;;;;;6.82;1.80;;;;;;;;;;5056659;28;20041;-60
2021/03/13 09:12:05;;;;;;;8.10;0.95;;;;;;;;;;5055094;28;20087;-59
2021/03/13 09:14:31;;;;;;;4.40;0.82;;;;;;;;;;5055756;28;20029;-60
2021/03/13 09:16:57;;;;;;;0.88;0.28;;;;;;;;;;5056663;28;20063;-60
2021/03/13 09:19:25;;;;;;;0.30;0.30;;;;;;;;;;5056268;28;20278;-60
2021/03/13 09:21:52;;;;;;;2.15;0.57;;;;;;;;;;5052295;28;20021;-60
2021/03/13 09:24:20;;;;;;;1.65;0.30;;;;;;;;;;5053694;28;20037;-59
2021/03/13 09:26:50;;;;;;;0.50;0.50;;;;;;;;;;5056707;28;20171;-59
2021/03/13 09:29:16;;;;;;;2.33;1.30;;;;;;;;;;5055886;28;20052;-60
2021/03/13 09:31:42;;;;;;;0.43;0.20;;;;;;;;;;5055377;28;20395;-60
2021/03/13 09:34:12;;;;;;;0.38;0.30;;;;;;;;;;5054620;28;20032;-59
2021/03/13 09:36:38;;;;;;;0.10;0.10;;;;;;;;;;5055964;28;20029;-59
2021/03/13 09:39:04;;;;;;;5.53;0.70;;;;;;;;;;5068688;28;20033;-59
2021/03/13 09:41:30;;;;;;;3.97;1.10;;;;;;;;;;5066780;28;20043;-60
2021/03/13 09:43:56;;;;;;;4.70;0.82;;;;;;;;;;5068979;28;20111;-59
2021/03/13 09:46:24;;;;;;;5.95;0.82;;;;;;;;;;5070227;28;20447;-59
2021/03/13 09:48:51;;;;;;;1.70;0.32;;;;;;;;;;5068028;28;20044;-60
2021/03/13 09:51:17;;;;;;;0.30;0.30;;;;;;;;;;5070968;28;20025;-59
2021/03/13 09:53:43;;;;;;;7.22;0.95;;;;;;;;;;5068394;28;20041;-60
2021/03/13 09:56:10;;;;;;;5.15;0.93;;;;;;;;;;5067279;28;20485;-60
2021/03/13 09:58:36;;;;;;;1.08;1.08;;;;;;;;;;5066909;28;20063;-59
2021/03/13 10:01:02;;;;;;;10.90;0.90;;;;;;;;;;5067044;28;20059;-60
2021/03/13 10:03:29;;;;;;;5.20;0.70;;;;;;;;;;5063741;28;20025;-60
2021/03/13 10:05:56;;;;;;;0.35;0.25;;;;;;;;;;5058065;28;20036;-59
2021/03/13 10:08:22;;;;;;;5.53;1.25;;;;;;;;;;5050885;28;20049;-60
2021/03/13 10:10:54;;;;;;;3.95;1.00;;;;;;;;;;5053376;28;20027;-60
2021/03/13 10:13:23;;;;;;;9.77;1.92;;;;;;;;;;5051358;28;20032;-59
2021/03/13 10:15:49;;;;;;;0.28;0.28;;;;;;;;;;5049843;28;20079;-59
2021/03/13 10:18:16;;;;;;;1.58;0.55;;;;;;;;;;5051795;28;20033;-58
2021/03/13 10:20:45;;;;;;;29.02;2.83;;;;;;;;;;5057877;28;20021;-59
2021/03/13 10:23:14;;;;;;;7.90;1.35;;;;;;;;;;5059457;28;20036;-59
2021/03/13 10:25:41;;;;;;;7.93;1.23;;;;;;;;;;5060695;28;20029;-59
2021/03/13 10:28:11;;;;;;;8.07;1.23;;;;;;;;;;5053138;28;20532;-59
2021/03/13 10:30:38;;;;;;;2.58;1.35;;;;;;;;;;5061864;28;20025;-59
2021/03/13 10:33:05;;;;;;;12.90;2.05;;;;;;;;;;5065044;28;20078;-59
2021/03/13 10:35:33;;;;;;;2.55;0.40;;;;;;;;;;5061285;28;20508;-59
2021/03/13 10:38:20;;;;;;;7.60;0.60;;;;;;;;;;5063975;28;20017;-59
2021/03/13 10:40:47;;;;;;;1.67;1.58;;;;;;;;;;5067760;28;20115;-59
2021/03/13 10:43:25;;;;;;;3.00;0.50;;;;;;;;;;5069188;28;20059;-59
2021/03/13 10:45:57;;;;;;;0.75;0.70;;;;;;;;;;5068307;28;20029;-59
2021/03/13 10:48:27;;;;;;;2.30;2.13;;;;;;;;;;5057662;28;20036;-58
2021/03/13 10:50:57;;;;;;;2.42;0.30;;;;;;;;;;5065885;28;20108;-58
2021/03/13 10:53:35;;;;;;;6.72;0.93;;;;;;;;;;5059443;28;20063;-58
2021/03/13 10:56:03;;;;;;;1.73;0.50;;;;;;;;;;5062975;28;20029;-59
2021/03/13 10:58:36;;;;;;;1.85;1.10;;;;;;;;;;5065862;28;20425;-58
2021/03/13 11:01:04;;;;;;;1.17;0.55;;;;;;;;;;5067365;28;20043;-58
2021/03/13 11:03:30;;;;;;;1.65;0.32;;;;;;;;;;5069995;28;20028;-59
2021/03/13 11:05:56;;;;;;;4.10;0.90;;;;;;;;;;5068723;28;20025;-59
2021/03/13 11:08:23;;;;;;;0.73;0.60;;;;;;;;;;5060606;28;20037;-59
2021/03/13 11:10:50;;;;;;;1.85;0.65;;;;;;;;;;5057445;28;20033;-58
2021/03/13 11:13:16;;;;;;;2.72;1.17;;;;;;;;;;5057886;28;20016;-58
2021/03/13 11:15:43;;;;;;;2.17;0.85;;;;;;;;;;5053776;28;20031;-59
2021/03/13 11:18:09;;;;;;;3.50;0.70;;;;;;;;;;5058053;28;20071;-60
2021/03/13 11:20:36;;;;;;;0.30;0.20;;;;;;;;;;5069281;28;20036;-59
2021/03/13 11:23:02;;;;;;;2.75;0.40;;;;;;;;;;5070047;28;20034;-59
2021/03/13 11:25:28;;;;;;;1.15;0.45;;;;;;;;;;5070165;28;20032;-58
2021/03/13 11:27:54;;;;;;;6.07;1.45;;;;;;;;;;5070647;28;20021;-59
2021/03/13 11:30:21;;;;;;;11.50;4.18;;;;;;;;;;5072778;28;20512;-59
2021/03/13 11:32:47;;;;;;;15.68;2.78;;;;;;;;;;5071325;28;20020;-59
2021/03/13 11:35:13;;;;;;;16.42;1.00;;;;;;;;;;5067923;28;20043;-59
2021/03/13 11:37:40;;;;;;;1.90;0.57;;;;;;;;;;5070366;28;20074;-59
2021/03/13 11:40:07;;;;;;;5.78;2.58;;;;;;;;;;5066896;28;20029;-59
2021/03/13 11:42:33;;;;;;;6.05;0.80;;;;;;;;;;5071789;28;20047;-59
2021/03/13 11:44:59;;;;;;;7.40;0.95;;;;;;;;;;5071676;28;20031;-59
2021/03/13 11:47:26;;;;;;;14.48;0.73;;;;;;;;;;5069833;28;20035;-58
2021/03/13 11:49:52;;;;;;;0.63;0.20;;;;;;;;;;5069727;28;20040;-59
2021/03/13 11:52:19;;;;;;;2.05;1.25;;;;;;;;;;5069819;28;20538;-58
2021/03/13 11:54:46;;;;;;;5.47;0.98;;;;;;;;;;5069585;28;20032;-59
2021/03/13 11:57:12;;;;;;;2.28;1.05;;;;;;;;;;5072150;28;20480;-57
2021/03/13 11:59:38;;;;;;;0.80;0.40;;;;;;;;;;5069120;28;20048;-59
2021/03/13 12:02:05;;;;;;;7.50;1.45;;;;;;;;;;5068676;28;20040;-59
2021/03/13 12:04:31;;;;;;;3.28;0.93;;;;;;;;;;5069430;28;20029;-59
2021/03/13 12:06:57;;;;;;;0.30;0.30;;;;;;;;;;5069948;28;20024;-59
2021/03/13 12:09:23;;;;;;;0.73;0.68;;;;;;;;;;5069721;28;20071;-58
2021/03/13 12:11:49;;;;;;;6.57;1.05;;;;;;;;;;5071327;28;20016;-59
2021/03/13 12:14:15;;;;;;;8.38;0.80;;;;;;;;;;5066992;28;20028;-59
2021/03/13 12:16:41;;;;;;;4.57;0.28;;;;;;;;;;5068718;28;20189;-58
2021/03/13 12:19:08;;;;;;;11.93;1.13;;;;;;;;;;5069599;28;20036;-60
2021/03/13 12:21:34;;;;;;;2.28;0.98;;;;;;;;;;5068776;28;20024;-59
2021/03/13 12:24:00;;;;;;;10.88;3.03;;;;;;;;;;5070824;28;20025;-59
2021/03/13 12:26:26;;;;;;;3.33;0.88;;;;;;;;;;5070075;28;20501;-59
2021/03/13 12:28:52;;;;;;;6.22;2.72;;;;;;;;;;5069515;28;20069;-59
2021/03/13 12:31:19;;;;;;;3.47;1.13;;;;;;;;;;5068733;28;20028;-59
2021/03/13 12:33:45;;;;;;;8.05;1.48;;;;;;;;;;5069877;28;20024;-59
2021/03/13 12:36:12;;;;;;;20.30;3.50;;;;;;;;;;5069527;28;20043;-59
2021/03/13 12:38:38;;;;;;;4.18;1.13;;;;;;;;;;5068319;28;20036;-61
2021/03/13 12:41:04;;;;;;;2.75;0.95;;;;;;;;;;5069219;28;20591;-61
2021/03/13 12:43:31;;;;;;;2.55;0.70;;;;;;;;;;5069076;28;20074;-60
2021/03/13 12:45:57;;;;;;;6.13;1.13;;;;;;;;;;5069069;28;20070;-60
2021/03/13 12:48:23;;;;;;;5.65;0.80;;;;;;;;;;5069129;28;20028;-60
2021/03/13 12:50:51;;;;;;;4.40;1.52;;;;;;;;;;5069993;28;20116;-60
2021/03/13 12:53:17;;;;;;;3.35;0.85;;;;;;;;;;5066720;28;20024;-61
2021/03/13 12:55:43;;;;;;;1.70;0.82;;;;;;;;;;5069341;28;20020;-60
2021/03/13 12:58:10;;;;;;;13.30;1.60;;;;;;;;;;5066934;28;20067;-60
2021/03/13 13:00:36;;;;;;;1.58;1.08;;;;;;;;;;5066776;28;20066;-60
2021/03/13 13:03:03;;;;;;;0.17;0.10;;;;;;;;;;5067643;28;20095;-60
2021/03/13 13:05:29;;;;;;;5.97;1.33;;;;;;;;;;5064937;28;20032;-61
2021/03/13 13:07:56;;;;;;;4.85;1.02;;;;;;;;;;5067690;28;20020;-60
2021/03/13 13:10:22;;;;;;;1.20;0.50;;;;;;;;;;5066633;28;20421;-60
2021/03/13 13:12:48;;;;;;;2.53;0.80;;;;;;;;;;5067669;28;20020;-60
2021/03/13 13:15:14;;;;;;;1.80;1.00;;;;;;;;;;5068898;28;20413;-60
2021/03/13 13:17:41;;;;;;;8.30;1.48;;;;;;;;;;5067546;28;20032;-61
2021/03/13 13:20:10;;;;;;;5.95;2.70;;;;;;;;;;5063860;28;20032;-60
2021/03/13 13:22:37;;;;;;;3.90;0.88;;;;;;;;;;5066374;28;20702;-60
2021/03/13 13:25:04;;;;;;;1.70;0.80;;;;;;;;;;5067739;28;20072;-60
2021/03/13 13:27:30;;;;;;;2.03;0.30;;;;;;;;;;5069215;28;20119;-61
2021/03/13 13:29:56;;;;;;;2.38;0.77;;;;;;;;;;5066826;28;20039;-60
2021/03/13 13:32:23;;;;;;;0.35;0.22;;;;;;;;;;5064646;28;20029;-60
2021/03/13 13:34:49;;;;;;;2.38;0.52;;;;;;;;;;5067829;28;20021;-60
2021/03/13 13:37:16;;;;;;;3.83;0.40;;;;;;;;;;5068149;28;20028;-60
2021/03/13 13:39:42;;;;;;;1.17;0.80;;;;;;;;;;5066639;28;20035;-60
2021/03/13 13:42:08;;;;;;;4.32;0.60;;;;;;;;;;5069852;28;20052;-60
2021/03/13 13:44:34;;;;;;;2.05;0.60;;;;;;;;;;5068962;28;20039;-60
2021/03/13 13:47:01;;;;;;;0.30;0.25;;;;;;;;;;5067604;28;20024;-61
2021/03/13 13:49:27;;;;;;;2.13;0.90;;;;;;;;;;5068171;28;20505;-60
2021/03/13 13:51:53;;;;;;;1.98;0.55;;;;;;;;;;5067043;28;20025;-60
2021/03/13 13:54:19;;;;;;;5.00;0.85;;;;;;;;;;5069876;28;20032;-60
2021/03/13 13:56:46;;;;;;;11.65;0.88;;;;;;;;;;5069880;28;20028;-59
2021/03/13 13:59:12;;;;;;;1.05;0.25;;;;;;;;;;5066106;28;20056;-61
2021/03/13 14:01:38;;;;;;;1.73;0.40;;;;;;;;;;5066339;28;20021;-60
2021/03/13 14:04:05;;;;;;;6.60;0.40;;;;;;;;;;5066589;28;20437;-60
2021/03/13 14:06:31;;;;;;;3.80;0.50;;;;;;;;;;5069173;28;20040;-59
2021/03/13 14:08:57;;;;;;;1.73;0.77;;;;;;;;;;5068799;28;20047;-60
2021/03/13 14:11:23;;;;;;;3.30;0.98;;;;;;;;;;5069908;28;20030;-60
2021/03/13 14:13:49;;;;;;;7.65;3.25;;;;;;;;;;5071422;28;20039;-60
2021/03/13 14:16:16;;;;;;;2.45;0.60;;;;;;;;;;5071204;28;20028;-61
2021/03/13 14:18:42;;;;;;;8.25;1.00;;;;;;;;;;5070674;28;20482;-60
2021/03/13 14:21:08;;;;;;;0.40;0.30;;;;;;;;;;5074647;28;20486;-60
2021/03/13 14:23:34;;;;;;;5.03;0.73;;;;;;;;;;5071454;28;20036;-60
2021/03/13 14:26:00;;;;;;;1.25;1.10;;;;;;;;;;5071406;28;20081;-60
2021/03/13 14:28:26;;;;;;;3.22;0.60;;;;;;;;;;5071392;28;20028;-60
2021/03/13 14:30:52;;;;;;;0.68;0.45;;;;;;;;;;5071465;28;20044;-60
2021/03/13 14:33:18;;;;;;;0.95;0.85;;;;;;;;;;5072820;28;20024;-60
2021/03/13 14:35:44;;;;;;;6.15;1.77;;;;;;;;;;5071425;28;20591;-61
2021/03/13 14:38:10;;;;;;;1.90;0.77;;;;;;;;;;5070955;28;20112;-60
2021/03/13 14:40:37;;;;;;;0.65;0.45;;;;;;;;;;5072297;28;20485;-60
2021/03/13 14:43:04;;;;;;;6.10;2.13;;;;;;;;;;5071031;28;20024;-60
2021/03/13 14:45:30;;;;;;;6.65;1.52;;;;;;;;;;5073174;28;20062;-60
2021/03/13 14:47:56;;;;;;;11.38;2.22;;;;;;;;;;5071749;28;20029;-60
2021/03/13 14:50:22;;;;;;;7.32;1.83;;;;;;;;;;5070431;28;20040;-60
2021/03/13 14:52:50;;;;;;;8.95;1.13;;;;;;;;;;5070325;28;20046;-61
2021/03/13 14:55:18;;;;;;;1.80;0.90;;;;;;;;;;5070793;28;20493;-60
2021/03/13 14:57:45;;;;;;;0.38;0.38;;;;;;;;;;5054657;28;20029;-59
2021/03/13 15:00:13;;;;;;;0.70;0.70;;;;;;;;;;5073584;28;20048;-60
2021/03/13 15:02:39;;;;;;;0.43;0.43;;;;;;;;;;5069424;28;20505;-59
2021/03/13 15:05:06;;;;;;;3.60;0.63;;;;;;;;;;5070299;28;20028;-60
2021/03/13 15:07:32;;;;;;;4.13;1.23;;;;;;;;;;5070140;28;20032;-60
2021/03/13 15:09:58;;;;;;;6.60;0.88;;;;;;;;;;5069212;28;20044;-59
2021/03/13 15:12:24;;;;;;;0.85;0.30;;;;;;;;;;5072600;28;20111;-60
2021/03/13 15:14:51;;;;;;;18.25;0.93;;;;;;;;;;5070871;28;20031;-60
2021/03/13 15:17:18;;;;;;;1.80;0.88;;;;;;;;;;5068153;28;20108;-60
2021/03/13 15:19:44;;;;;;;6.32;1.08;;;;;;;;;;5069912;28;20032;-60
2021/03/13 15:22:11;;;;;;;3.35;0.77;;;;;;;;;;5069528;28;20020;-59
2021/03/13 15:24:37;;;;;;;10.60;0.30;;;;;;;;;;5066084;28;20043;-61
2021/03/13 15:27:05;;;;;;;0.47;0.45;;;;;;;;;;5066415;28;20060;-60
2021/03/13 15:29:31;;;;;;;2.42;0.32;;;;;;;;;;5065296;28;20048;-68
2021/03/13 15:31:57;;;;;;;8.13;1.23;;;;;;;;;;5065466;28;20021;-60
2021/03/13 15:34:24;;;;;;;8.75;1.95;;;;;;;;;;5044194;28;20048;-60
2021/03/13 15:36:50;;;;;;;2.90;0.75;;;;;;;;;;5057384;28;20035;-60
2021/03/13 15:39:16;;;;;;;2.25;1.15;;;;;;;;;;5065993;28;20513;-60
2021/03/13 15:41:42;;;;;;;1.15;0.73;;;;;;;;;;5059354;28;20057;-59
2021/03/13 15:44:10;;;;;;;5.90;1.00;;;;;;;;;;5066585;28;20394;-60
2021/03/13 15:46:37;;;;;;;0.45;0.30;;;;;;;;;;5062329;28;20036;-59
2021/03/13 15:49:09;;;;;;;0.70;0.52;;;;;;;;;;5065546;28;20438;-60
2021/03/13 15:51:35;;;;;;;0.28;0.28;;;;;;;;;;5065671;28;20032;-59
2021/03/13 15:54:03;;;;;;;1.52;0.70;;;;;;;;;;5059251;28;20017;-59
2021/03/13 15:56:29;;;;;;;3.47;1.30;;;;;;;;;;5061603;28;20107;-56
2021/03/13 15:58:56;;;;;;;0.43;0.38;;;;;;;;;;5056548;28;20471;-57
2021/03/13 16:01:22;;;;;;;2.58;0.75;;;;;;;;;;5053236;28;20055;-57
2021/03/13 16:03:52;;;;;;;6.90;1.38;;;;;;;;;;5053192;28;20029;-57
2021/03/13 16:06:19;;;;;;;1.17;0.75;;;;;;;;;;5055609;28;20033;-58
2021/03/13 16:08:45;;;;;;;8.93;1.02;;;;;;;;;;5063091;28;20071;-58
2021/03/13 16:11:12;;;;;;;6.22;0.40;;;;;;;;;;5055541;28;20025;-58
2021/03/13 16:13:39;;;;;;;3.85;1.10;;;;;;;;;;5061250;28;20029;-59
2021/03/13 16:16:06;;;;;;;0.40;0.38;;;;;;;;;;5075269;28;20021;-59
2021/03/13 16:18:37;;;;;;;0.35;0.10;;;;;;;;;;5063400;28;20029;-59
2021/03/13 16:21:09;;;;;;;2.17;0.30;;;;;;;;;;5064108;28;20064;-58
2021/03/13 16:23:39;;;;;;;0.10;0.10;;;;;;;;;;5054687;28;20021;-58
2021/03/13 16:26:11;;;;;;;5.18;0.32;;;;;;;;;;5059148;28;20024;-59
2021/03/13 16:28:45;;;;;;;1.27;0.47;;;;;;;;;;5062836;28;20499;-59
2021/03/13 16:31:11;;;;;;;2.17;2.00;;;;;;;;;;5049988;28;20049;-58
2021/03/13 16:33:39;;;;;;;0.20;0.20;;;;;;;;;;5064849;28;20390;-59
2021/03/13 16:36:07;;;;;;;10.90;1.48;;;;;;;;;;5058733;28;20025;-58
2021/03/13 16:38:34;;;;;;;3.95;0.82;;;;;;;;;;5055368;28;20297;-59
2021/03/13 16:41:01;;;;;;;0.20;0.20;;;;;;;;;;5048468;28;20032;-59
2021/03/13 16:43:40;;;;;;;8.95;1.02;;;;;;;;;;5053457;28;20392;-59
2021/03/13 16:46:07;;;;;;;0.77;0.52;;;;;;;;;;5061869;28;20613;-58
2021/03/13 16:48:34;;;;;;;0.13;0.13;;;;;;;;;;5059682;28;20132;-59
2021/03/13 16:51:01;;;;;;;3.72;0.93;;;;;;;;;;5094153;28;20441;-59
2021/03/13 16:53:28;;;;;;;5.50;2.45;;;;;;;;;;5054763;28;20078;-58
2021/03/13 16:56:00;;;;;;;7.65;1.35;;;;;;;;;;5058211;28;20490;-58
2021/03/13 16:58:27;;;;;;;11.55;1.77;;;;;;;;;;5059969;28;20029;-59
2021/03/13 17:00:54;;;;;;;0.95;0.70;;;;;;;;;;5065098;28;20082;-58
2021/03/13 17:03:21;;;;;;;11.98;1.85;;;;;;;;;;5050949;28;20519;-59
2021/03/13 17:05:54;;;;;;;5.65;1.83;;;;;;;;;;5061702;28;20462;-59
2021/03/13 17:08:21;;;;;;;5.75;0.65;;;;;;;;;;5057116;28;20025;-59
2021/03/13 17:10:47;;;;;;;4.85;1.73;;;;;;;;;;5052529;28;20725;-59
2021/03/13 17:13:20;;;;;;;1.60;0.88;;;;;;;;;;5049668;28;20039;-59
2021/03/13 17:15:49;;;;;;;2.13;0.40;;;;;;;;;;5048458;28;20028;-58
2021/03/13 17:18:18;;;;;;;0.30;0.25;;;;;;;;;;5059328;28;20094;-59
2021/03/13 17:20:45;;;;;;;10.63;1.55;;;;;;;;;;5064136;28;20028;-59
2021/03/13 17:23:12;;;;;;;0.50;0.50;;;;;;;;;;5059082;28;20127;-59
2021/03/13 17:25:38;;;;;;;2.35;0.90;;;;;;;;;;5059800;28;20036;-58
2021/03/13 17:28:06;;;;;;;4.85;1.17;;;;;;;;;;5061875;28;20017;-57
2021/03/13 17:30:32;;;;;;;1.70;1.08;;;;;;;;;;5088395;28;20040;-59
2021/03/13 17:32:59;;;;;;;4.78;0.80;;;;;;;;;;5051786;28;20494;-58
2021/03/13 17:35:28;;;;;;;12.75;1.55;;;;;;;;;;5049617;28;20087;-58
2021/03/13 17:37:54;;;;;;;0.50;0.40;;;;;;;;;;5049594;28;20116;-58
2021/03/13 17:40:36;;;;;;;12.40;2.20;;;;;;;;;;5050784;28;20112;-59
2021/03/13 17:43:02;;;;;;;1.55;0.70;;;;;;;;;;5051076;28;20082;-59
2021/03/13 17:45:29;;;;;;;2.58;0.45;;;;;;;;;;5059989;28;20024;-58
2021/03/13 17:47:55;;;;;;;0.85;0.50;;;;;;;;;;5063377;28;20048;-59
2021/03/13 17:50:21;;;;;;;0.38;0.38;;;;;;;;;;5061396;28;20159;-59
2021/03/13 17:52:56;;;;;;;1.77;0.45;;;;;;;;;;5063174;28;20054;-58
2021/03/13 17:55:22;;;;;;;6.63;1.65;;;;;;;;;;5063996;28;20035;-59
2021/03/13 17:57:50;;;;;;;1.05;0.40;;;;;;;;;;5062670;28;20435;-58
2021/03/13 18:00:17;;;;;;;6.72;1.33;;;;;;;;;;5067319;28;20135;-59
2021/03/13 18:02:52;;;;;;;2.92;0.80;;;;;;;;;;5067562;28;20028;-59
2021/03/13 18:05:24;;;;;;;6.03;2.28;;;;;;;;;;5061237;28;20580;-58
2021/03/13 18:07:50;;;;;;;1.33;0.40;;;;;;;;;;5064022;28;20036;-59
2021/03/13 18:10:17;;;;;;;0.22;0.22;;;;;;;;;;5065526;28;20044;-58
2021/03/13 18:12:46;;;;;;;0.40;0.40;;;;;;;;;;5064655;28;20020;-57
2021/03/13 18:15:14;;;;;;;1.70;0.40;;;;;;;;;;5065491;28;20029;-58
2021/03/13 18:17:41;;;;;;;2.00;0.77;;;;;;;;;;5064821;28;20029;-57
2021/03/13 18:20:08;;;;;;;1.70;1.00;;;;;;;;;;5066844;28;20477;-59
2021/03/13 18:22:40;;;;;;;1.20;0.63;;;;;;;;;;5065852;28;20502;-59
2021/03/13 18:25:08;;;;;;;5.63;1.67;;;;;;;;;;5066281;28;20032;-59
2021/03/13 18:27:34;;;;;;;3.17;2.08;;;;;;;;;;5065605;28;20115;-59
2021/03/13 18:30:00;;;;;;;1.73;1.27;;;;;;;;;;5067961;28;20473;-60
2021/03/13 18:32:26;;;;;;;3.65;0.80;;;;;;;;;;5067751;28;20025;-59
2021/03/13 18:34:53;;;;;;;6.78;0.82;;;;;;;;;;5067133;28;20029;-59
2021/03/13 18:37:28;;;;;;;2.97;0.82;;;;;;;;;;5068066;28;20103;-58
2021/03/13 18:39:55;;;;;;;14.05;1.10;;;;;;;;;;5067011;28;20060;-59
2021/03/13 18:42:22;;;;;;;4.80;1.00;;;;;;;;;;5068718;28;20029;-59
2021/03/13 18:44:48;;;;;;;5.68;1.55;;;;;;;;;;5067858;28;20033;-59
2021/03/13 18:47:15;;;;;;;0.20;0.20;;;;;;;;;;5067027;28;20036;-59
2021/03/13 18:49:43;;;;;;;2.88;2.17;;;;;;;;;;5065929;28;20041;-59
2021/03/13 18:52:11;;;;;;;4.72;1.80;;;;;;;;;;5066360;28;20023;-59
2021/03/13 18:54:38;;;;;;;1.55;0.40;;;;;;;;;;5067071;28;20025;-59
2021/03/13 18:57:25;;;;;;;3.35;0.98;;;;;;;;;;5069183;28;20062;-59
2021/03/13 18:59:54;;;;;;;5.40;1.70;;;;;;;;;;5071546;28;20052;-59
2021/03/13 19:02:20;;;;;;;5.78;1.35;;;;;;;;;;5070613;28;20085;-59
2021/03/13 19:04:57;;;;;;;2.40;0.30;;;;;;;;;;5069558;28;20024;-59
2021/03/13 19:07:24;;;;;;;5.93;1.38;;;;;;;;;;5070576;28;20044;-59
2021/03/13 19:09:50;;;;;;;4.13;1.55;;;;;;;;;;5070025;28;20119;-59
2021/03/13 19:12:16;;;;;;;9.38;2.13;;;;;;;;;;5073550;28;20115;-59
2021/03/13 19:14:43;;;;;;;3.40;1.05;;;;;;;;;;5071939;28;20110;-60
2021/03/13 19:17:09;;;;;;;4.30;0.77;;;;;;;;;;5070721;28;20025;-59
2021/03/13 19:19:35;;;;;;;4.85;1.85;;;;;;;;;;5067536;28;20033;-60
2021/03/13 19:22:01;;;;;;;3.85;1.10;;;;;;;;;;5063724;28;20025;-59
2021/03/13 19:24:41;;;;;;;5.85;1.35;;;;;;;;;;5067588;28;20371;-59
2021/03/13 19:27:31;;;;;;;4.43;1.42;;;;;;;;;;5070652;28;20040;-59
2021/03/13 19:29:58;;;;;;;0.40;0.40;;;;;;;;;;5068676;28;20036;-59
2021/03/13 19:32:25;;;;;;;2.72;0.85;;;;;;;;;;5063713;28;20124;-59
2021/03/13 19:34:51;;;;;;;3.83;0.63;;;;;;;;;;5064182;28;20422;-59
2021/03/13 19:37:17;;;;;;;11.68;1.27;;;;;;;;;;5067788;28;20413;-59
2021/03/13 19:39:43;;;;;;;2.75;0.75;;;;;;;;;;5060411;28;20131;-59
2021/03/13 19:42:10;;;;;;;4.75;1.00;;;;;;;;;;5065704;28;20569;-59
2021/03/13 19:44:36;;;;;;;6.03;1.20;;;;;;;;;;5053869;28;20526;-59
2021/03/13 19:47:02;;;;;;;1.42;0.47;;;;;;;;;;5059076;28;20025;-59
2021/03/13 19:49:28;;;;;;;4.15;1.00;;;;;;;;;;5061109;28;20490;-59
2021/03/13 19:51:54;;;;;;;0.85;0.30;;;;;;;;;;5064036;28;20032;-60
2021/03/13 19:54:21;;;;;;;5.32;0.50;;;;;;;;;;5063755;28;20604;-59
2021/03/13 19:56:47;;;;;;;0.17;0.17;;;;;;;;;;5053417;28;20113;-59
2021/03/13 19:59:13;;;;;;;6.00;0.50;;;;;;;;;;5049638;28;20135;-59
2021/03/13 20:01:39;;;;;;;0.70;0.40;;;;;;;;;;5055306;28;20017;-59
2021/03/13 20:04:06;;;;;;;6.60;1.08;;;;;;;;;;5055466;28;20056;-59
2021/03/13 20:06:32;;;;;;;15.43;2.33;;;;;;;;;;5057554;28;20032;-59
2021/03/13 20:08:58;;;;;;;4.00;1.15;;;;;;;;;;5062958;28;20087;-60
2021/03/13 20:11:24;;;;;;;1.85;0.55;;;;;;;;;;5059724;28;20498;-60
2021/03/13 20:13:56;;;;;;;2.35;0.30;;;;;;;;;;5060543;28;20365;-59
2021/03/13 20:16:22;;;;;;;1.08;0.40;;;;;;;;;;5061512;28;20059;-59
2021/03/13 20:18:48;;;;;;;3.97;0.98;;;;;;;;;;5055315;28;20036;-59
2021/03/13 20:21:15;;;;;;;6.13;1.33;;;;;;;;;;5050792;28;20039;-59
2021/03/13 20:23:41;;;;;;;2.50;0.32;;;;;;;;;;5048320;28;20021;-59
2021/03/13 20:26:07;;;;;;;6.38;1.10;;;;;;;;;;5047124;28;20518;-59
2021/03/13 20:28:33;;;;;;;2.70;1.15;;;;;;;;;;5051848;28;20052;-60
2021/03/13 20:30:59;;;;;;;8.35;1.40;;;;;;;;;;5049688;28;20037;-59
2021/03/13 20:33:25;;;;;;;8.82;0.60;;;;;;;;;;5063841;28;20024;-59
2021/03/13 20:35:51;;;;;;;2.10;0.90;;;;;;;;;;5062494;28;20028;-59
2021/03/13 20:38:17;;;;;;;0.57;0.40;;;;;;;;;;5061522;28;20024;-60
2021/03/13 20:40:43;;;;;;;5.53;0.95;;;;;;;;;;5061166;28;20082;-60
2021/03/13 20:43:10;;;;;;;3.65;1.35;;;;;;;;;;5062914;28;20560;-59
2021/03/13 20:45:36;;;;;;;11.20;1.80;;;;;;;;;;5062473;28;20043;-60